sensor_id;sensor_type;location;lat;lon;timestamp;P1;durP1;ratioP1;P2;durP2;ratioP2
27802;SDS011;15182;48.174;11.562;2022-07-29T00:01:26;1.50;;;1.35;;
27802;SDS011;15182;48.174;11.562;2022-07-29T00:03:58;1.17;;;1.17;;
27802;SDS011;15182;48.174;11.562;2022-07-29T00:06:29;1.40;;;1.40;;
27802;SDS011;15182;48.174;11.562;2022-07-29T00:09:00;1.35;;;1.30;;
27802;SDS011;15182;48.174;11.562;2022-07-29T00:11:34;1.60;;;1.60;;
27802;SDS011;15182;48.174;11.562;2022-07-29T00:14:05;2.72;;;1.30;;
27802;SDS011;15182;48.174;11.562;2022-07-29T00:16:38;1.30;;;1.30;;
27802;SDS011;15182;48.174;11.562;2022-07-29T00:19:09;1.30;;;1.30;;
27802;SDS011;15182;48.174;11.562;2022-07-29T00:21:41;1.85;;;1.30;;
27802;SDS011;15182;48.174;11.562;2022-07-29T00:24:12;1.67;;;1.40;;
27802;SDS011;15182;48.174;11.562;2022-07-29T00:26:43;1.70;;;1.70;;
27802;SDS011;15182;48.174;11.562;2022-07-29T00:29:15;1.45;;;1.45;;
27802;SDS011;15182;48.174;11.562;2022-07-29T00:31:48;1.60;;;1.60;;
27802;SDS011;15182;48.174;11.562;2022-07-29T00:34:19;1.80;;;1.70;;
27802;SDS011;15182;48.174;11.562;2022-07-29T00:37:08;3.45;;;1.70;;
27802;SDS011;15182;48.174;11.562;2022-07-29T00:39:40;2.95;;;1.70;;
27802;SDS011;15182;48.174;11.562;2022-07-29T00:42:12;2.00;;;1.90;;
27802;SDS011;15182;48.174;11.562;2022-07-29T00:44:43;1.67;;;1.52;;
27802;SDS011;15182;48.174;11.562;2022-07-29T00:47:15;2.08;;;1.75;;
27802;SDS011;15182;48.174;11.562;2022-07-29T00:49:47;1.67;;;1.67;;
27802;SDS011;15182;48.174;11.562;2022-07-29T00:52:19;1.60;;;1.60;;
27802;SDS011;15182;48.174;11.562;2022-07-29T00:54:51;1.60;;;1.60;;
27802;SDS011;15182;48.174;11.562;2022-07-29T00:57:23;1.70;;;1.70;;
27802;SDS011;15182;48.174;11.562;2022-07-29T00:59:54;1.77;;;1.65;;
27802;SDS011;15182;48.174;11.562;2022-07-29T01:02:27;1.40;;;1.40;;
27802;SDS011;15182;48.174;11.562;2022-07-29T01:04:59;1.35;;;1.30;;
27802;SDS011;15182;48.174;11.562;2022-07-29T01:07:32;1.52;;;1.52;;
27802;SDS011;15182;48.174;11.562;2022-07-29T01:10:05;1.50;;;1.50;;
27802;SDS011;15182;48.174;11.562;2022-07-29T01:12:39;1.35;;;1.35;;
27802;SDS011;15182;48.174;11.562;2022-07-29T01:15:13;1.52;;;1.52;;
27802;SDS011;15182;48.174;11.562;2022-07-29T01:17:46;1.42;;;1.42;;
27802;SDS011;15182;48.174;11.562;2022-07-29T01:20:24;1.60;;;1.60;;
27802;SDS011;15182;48.174;11.562;2022-07-29T01:23:10;1.30;;;1.30;;
27802;SDS011;15182;48.174;11.562;2022-07-29T01:26:00;2.15;;;1.35;;
27802;SDS011;15182;48.174;11.562;2022-07-29T01:28:56;1.17;;;1.17;;
27802;SDS011;15182;48.174;11.562;2022-07-29T01:31:33;1.40;;;1.30;;
27802;SDS011;15182;48.174;11.562;2022-07-29T01:34:11;1.20;;;1.20;;
27802;SDS011;15182;48.174;11.562;2022-07-29T01:36:50;1.88;;;1.42;;
27802;SDS011;15182;48.174;11.562;2022-07-29T01:39:27;1.35;;;1.35;;
27802;SDS011;15182;48.174;11.562;2022-07-29T01:42:05;1.48;;;1.48;;
27802;SDS011;15182;48.174;11.562;2022-07-29T01:44:41;1.55;;;1.55;;
27802;SDS011;15182;48.174;11.562;2022-07-29T01:47:22;1.40;;;1.40;;
27802;SDS011;15182;48.174;11.562;2022-07-29T01:50:03;1.30;;;1.30;;
27802;SDS011;15182;48.174;11.562;2022-07-29T01:52:42;1.50;;;1.50;;
27802;SDS011;15182;48.174;11.562;2022-07-29T01:55:22;1.30;;;1.17;;
27802;SDS011;15182;48.174;11.562;2022-07-29T01:57:58;1.55;;;1.55;;
27802;SDS011;15182;48.174;11.562;2022-07-29T02:00:33;1.33;;;1.33;;
27802;SDS011;15182;48.174;11.562;2022-07-29T02:03:07;1.38;;;1.38;;
27802;SDS011;15182;48.174;11.562;2022-07-29T02:05:41;1.50;;;1.50;;
27802;SDS011;15182;48.174;11.562;2022-07-29T02:08:15;1.50;;;1.50;;
27802;SDS011;15182;48.174;11.562;2022-07-29T02:10:47;1.30;;;1.30;;
27802;SDS011;15182;48.174;11.562;2022-07-29T02:13:21;1.10;;;1.10;;
27802;SDS011;15182;48.174;11.562;2022-07-29T02:15:58;1.60;;;1.60;;
27802;SDS011;15182;48.174;11.562;2022-07-29T02:18:32;1.60;;;1.60;;
27802;SDS011;15182;48.174;11.562;2022-07-29T02:21:06;1.73;;;1.73;;
27802;SDS011;15182;48.174;11.562;2022-07-29T02:23:38;1.90;;;1.90;;
27802;SDS011;15182;48.174;11.562;2022-07-29T02:26:12;1.70;;;1.70;;
27802;SDS011;15182;48.174;11.562;2022-07-29T02:28:43;1.77;;;1.52;;
27802;SDS011;15182;48.174;11.562;2022-07-29T02:31:18;1.60;;;1.60;;
27802;SDS011;15182;48.174;11.562;2022-07-29T02:33:56;1.50;;;1.50;;
27802;SDS011;15182;48.174;11.562;2022-07-29T02:36:29;1.80;;;1.70;;
27802;SDS011;15182;48.174;11.562;2022-07-29T02:39:02;1.83;;;1.83;;
27802;SDS011;15182;48.174;11.562;2022-07-29T02:41:35;1.70;;;1.70;;
27802;SDS011;15182;48.174;11.562;2022-07-29T02:44:11;1.60;;;1.60;;
27802;SDS011;15182;48.174;11.562;2022-07-29T02:46:48;1.55;;;1.52;;
27802;SDS011;15182;48.174;11.562;2022-07-29T02:49:28;1.55;;;1.55;;
27802;SDS011;15182;48.174;11.562;2022-07-29T02:52:05;1.70;;;1.70;;
27802;SDS011;15182;48.174;11.562;2022-07-29T02:54:44;1.42;;;1.42;;
27802;SDS011;15182;48.174;11.562;2022-07-29T02:57:19;1.38;;;1.38;;
27802;SDS011;15182;48.174;11.562;2022-07-29T02:59:59;1.40;;;1.40;;
27802;SDS011;15182;48.174;11.562;2022-07-29T03:02:38;1.30;;;1.30;;
27802;SDS011;15182;48.174;11.562;2022-07-29T03:05:14;1.55;;;1.55;;
27802;SDS011;15182;48.174;11.562;2022-07-29T03:07:49;1.55;;;1.55;;
27802;SDS011;15182;48.174;11.562;2022-07-29T03:10:24;1.23;;;1.23;;
27802;SDS011;15182;48.174;11.562;2022-07-29T03:12:57;1.33;;;1.33;;
27802;SDS011;15182;48.174;11.562;2022-07-29T03:15:29;1.55;;;1.55;;
27802;SDS011;15182;48.174;11.562;2022-07-29T03:18:03;1.42;;;1.42;;
27802;SDS011;15182;48.174;11.562;2022-07-29T03:20:36;1.30;;;1.30;;
27802;SDS011;15182;48.174;11.562;2022-07-29T03:23:10;1.67;;;1.58;;
27802;SDS011;15182;48.174;11.562;2022-07-29T03:25:49;1.30;;;1.30;;
27802;SDS011;15182;48.174;11.562;2022-07-29T03:28:21;1.35;;;1.35;;
27802;SDS011;15182;48.174;11.562;2022-07-29T03:30:54;1.30;;;1.30;;
27802;SDS011;15182;48.174;11.562;2022-07-29T03:33:26;1.40;;;1.40;;
27802;SDS011;15182;48.174;11.562;2022-07-29T03:35:58;1.85;;;1.42;;
27802;SDS011;15182;48.174;11.562;2022-07-29T03:38:29;1.40;;;1.40;;
27802;SDS011;15182;48.174;11.562;2022-07-29T03:41:05;2.50;;;1.88;;
27802;SDS011;15182;48.174;11.562;2022-07-29T03:43:38;1.88;;;1.88;;
27802;SDS011;15182;48.174;11.562;2022-07-29T03:46:10;2.30;;;2.30;;
27802;SDS011;15182;48.174;11.562;2022-07-29T03:48:46;2.40;;;2.40;;
27802;SDS011;15182;48.174;11.562;2022-07-29T03:51:19;2.08;;;1.98;;
27802;SDS011;15182;48.174;11.562;2022-07-29T03:53:51;1.80;;;1.80;;
27802;SDS011;15182;48.174;11.562;2022-07-29T03:56:23;1.80;;;1.80;;
27802;SDS011;15182;48.174;11.562;2022-07-29T03:58:55;1.83;;;1.73;;
27802;SDS011;15182;48.174;11.562;2022-07-29T04:01:28;1.90;;;1.90;;
27802;SDS011;15182;48.174;11.562;2022-07-29T04:04:04;1.80;;;1.80;;
27802;SDS011;15182;48.174;11.562;2022-07-29T04:06:39;1.83;;;1.70;;
27802;SDS011;15182;48.174;11.562;2022-07-29T04:09:12;1.77;;;1.77;;
27802;SDS011;15182;48.174;11.562;2022-07-29T04:11:43;1.90;;;1.80;;
27802;SDS011;15182;48.174;11.562;2022-07-29T04:14:16;1.85;;;1.85;;
27802;SDS011;15182;48.174;11.562;2022-07-29T04:16:47;2.00;;;2.00;;
27802;SDS011;15182;48.174;11.562;2022-07-29T04:19:20;1.98;;;1.98;;
27802;SDS011;15182;48.174;11.562;2022-07-29T04:21:52;2.10;;;2.00;;
27802;SDS011;15182;48.174;11.562;2022-07-29T04:24:24;1.98;;;1.98;;
27802;SDS011;15182;48.174;11.562;2022-07-29T04:26:55;1.98;;;1.98;;
27802;SDS011;15182;48.174;11.562;2022-07-29T04:29:27;2.10;;;2.10;;
27802;SDS011;15182;48.174;11.562;2022-07-29T04:31:58;2.17;;;2.17;;
27802;SDS011;15182;48.174;11.562;2022-07-29T04:34:31;2.03;;;2.03;;
27802;SDS011;15182;48.174;11.562;2022-07-29T04:37:02;1.80;;;1.80;;
27802;SDS011;15182;48.174;11.562;2022-07-29T04:39:34;1.92;;;1.92;;
27802;SDS011;15182;48.174;11.562;2022-07-29T04:42:07;2.15;;;2.05;;
27802;SDS011;15182;48.174;11.562;2022-07-29T04:44:38;2.25;;;2.25;;
27802;SDS011;15182;48.174;11.562;2022-07-29T04:47:09;2.08;;;1.95;;
27802;SDS011;15182;48.174;11.562;2022-07-29T04:49:42;1.98;;;1.98;;
27802;SDS011;15182;48.174;11.562;2022-07-29T04:52:14;1.90;;;1.80;;
27802;SDS011;15182;48.174;11.562;2022-07-29T04:54:45;2.83;;;2.17;;
27802;SDS011;15182;48.174;11.562;2022-07-29T04:57:16;2.33;;;2.10;;
27802;SDS011;15182;48.174;11.562;2022-07-29T04:59:48;2.25;;;2.25;;
27802;SDS011;15182;48.174;11.562;2022-07-29T05:02:19;2.28;;;2.00;;
27802;SDS011;15182;48.174;11.562;2022-07-29T05:04:52;1.92;;;1.88;;
27802;SDS011;15182;48.174;11.562;2022-07-29T05:07:23;1.80;;;1.80;;
27802;SDS011;15182;48.174;11.562;2022-07-29T05:09:55;2.00;;;2.00;;
27802;SDS011;15182;48.174;11.562;2022-07-29T05:12:26;1.88;;;1.77;;
27802;SDS011;15182;48.174;11.562;2022-07-29T05:14:57;2.40;;;1.90;;
27802;SDS011;15182;48.174;11.562;2022-07-29T05:17:29;2.10;;;2.10;;
27802;SDS011;15182;48.174;11.562;2022-07-29T05:20:01;2.03;;;1.77;;
27802;SDS011;15182;48.174;11.562;2022-07-29T05:22:34;2.00;;;2.00;;
27802;SDS011;15182;48.174;11.562;2022-07-29T05:25:06;2.65;;;2.50;;
27802;SDS011;15182;48.174;11.562;2022-07-29T05:27:38;2.40;;;2.40;;
27802;SDS011;15182;48.174;11.562;2022-07-29T05:30:09;2.08;;;1.98;;
27802;SDS011;15182;48.174;11.562;2022-07-29T05:32:41;2.22;;;2.13;;
27802;SDS011;15182;48.174;11.562;2022-07-29T05:35:14;4.88;;;2.35;;
27802;SDS011;15182;48.174;11.562;2022-07-29T05:37:45;2.65;;;2.45;;
27802;SDS011;15182;48.174;11.562;2022-07-29T05:40:17;2.20;;;2.20;;
27802;SDS011;15182;48.174;11.562;2022-07-29T05:42:50;2.35;;;2.33;;
27802;SDS011;15182;48.174;11.562;2022-07-29T05:45:21;1.88;;;1.88;;
27802;SDS011;15182;48.174;11.562;2022-07-29T05:47:53;2.35;;;2.15;;
27802;SDS011;15182;48.174;11.562;2022-07-29T05:50:25;10.90;;;3.53;;
27802;SDS011;15182;48.174;11.562;2022-07-29T05:52:57;4.75;;;2.35;;
27802;SDS011;15182;48.174;11.562;2022-07-29T05:55:28;2.38;;;2.28;;
27802;SDS011;15182;48.174;11.562;2022-07-29T05:58:00;4.25;;;2.10;;
27802;SDS011;15182;48.174;11.562;2022-07-29T06:00:31;2.10;;;2.00;;
27802;SDS011;15182;48.174;11.562;2022-07-29T06:03:02;1.83;;;1.70;;
27802;SDS011;15182;48.174;11.562;2022-07-29T06:05:35;1.90;;;1.88;;
27802;SDS011;15182;48.174;11.562;2022-07-29T06:08:06;4.20;;;2.05;;
27802;SDS011;15182;48.174;11.562;2022-07-29T06:10:40;2.08;;;1.85;;
27802;SDS011;15182;48.174;11.562;2022-07-29T06:13:11;2.17;;;2.08;;
27802;SDS011;15182;48.174;11.562;2022-07-29T06:15:42;1.88;;;1.88;;
27802;SDS011;15182;48.174;11.562;2022-07-29T06:18:14;1.70;;;1.70;;
27802;SDS011;15182;48.174;11.562;2022-07-29T06:20:47;1.65;;;1.65;;
27802;SDS011;15182;48.174;11.562;2022-07-29T06:23:19;1.70;;;1.70;;
27802;SDS011;15182;48.174;11.562;2022-07-29T06:25:50;2.05;;;1.95;;
27802;SDS011;15182;48.174;11.562;2022-07-29T06:28:22;2.17;;;1.90;;
27802;SDS011;15182;48.174;11.562;2022-07-29T06:30:53;3.72;;;1.92;;
27802;SDS011;15182;48.174;11.562;2022-07-29T06:33:25;1.65;;;1.65;;
27802;SDS011;15182;48.174;11.562;2022-07-29T06:35:58;2.25;;;2.03;;
27802;SDS011;15182;48.174;11.562;2022-07-29T06:38:29;2.75;;;2.20;;
27802;SDS011;15182;48.174;11.562;2022-07-29T06:41:01;1.75;;;1.75;;
27802;SDS011;15182;48.174;11.562;2022-07-29T06:43:35;1.55;;;1.52;;
27802;SDS011;15182;48.174;11.562;2022-07-29T06:46:08;1.83;;;1.80;;
27802;SDS011;15182;48.174;11.562;2022-07-29T06:48:45;1.92;;;1.92;;
27802;SDS011;15182;48.174;11.562;2022-07-29T06:51:17;1.77;;;1.67;;
27802;SDS011;15182;48.174;11.562;2022-07-29T06:53:49;1.70;;;1.60;;
27802;SDS011;15182;48.174;11.562;2022-07-29T06:56:23;1.70;;;1.70;;
27802;SDS011;15182;48.174;11.562;2022-07-29T06:58:54;1.63;;;1.63;;
27802;SDS011;15182;48.174;11.562;2022-07-29T07:01:26;1.95;;;1.95;;
27802;SDS011;15182;48.174;11.562;2022-07-29T07:03:57;1.65;;;1.65;;
27802;SDS011;15182;48.174;11.562;2022-07-29T07:06:30;1.90;;;1.80;;
27802;SDS011;15182;48.174;11.562;2022-07-29T07:09:02;2.92;;;1.60;;
27802;SDS011;15182;48.174;11.562;2022-07-29T07:11:33;1.75;;;1.73;;
27802;SDS011;15182;48.174;11.562;2022-07-29T07:14:04;6.65;;;1.83;;
27802;SDS011;15182;48.174;11.562;2022-07-29T07:16:36;1.70;;;1.70;;
27802;SDS011;15182;48.174;11.562;2022-07-29T07:19:07;1.60;;;1.60;;
27802;SDS011;15182;48.174;11.562;2022-07-29T07:21:40;1.58;;;1.58;;
27802;SDS011;15182;48.174;11.562;2022-07-29T07:24:12;1.58;;;1.58;;
27802;SDS011;15182;48.174;11.562;2022-07-29T07:26:43;1.25;;;1.25;;
27802;SDS011;15182;48.174;11.562;2022-07-29T07:29:15;1.38;;;1.38;;
27802;SDS011;15182;48.174;11.562;2022-07-29T07:31:46;1.52;;;1.50;;
27802;SDS011;15182;48.174;11.562;2022-07-29T07:34:17;1.75;;;1.50;;
27802;SDS011;15182;48.174;11.562;2022-07-29T07:36:50;1.60;;;1.60;;
27802;SDS011;15182;48.174;11.562;2022-07-29T07:39:21;1.65;;;1.55;;
27802;SDS011;15182;48.174;11.562;2022-07-29T07:41:52;1.60;;;1.60;;
27802;SDS011;15182;48.174;11.562;2022-07-29T07:44:24;1.75;;;1.65;;
27802;SDS011;15182;48.174;11.562;2022-07-29T07:46:55;1.40;;;1.40;;
27802;SDS011;15182;48.174;11.562;2022-07-29T07:49:26;1.50;;;1.50;;
27802;SDS011;15182;48.174;11.562;2022-07-29T07:51:59;1.55;;;1.55;;
27802;SDS011;15182;48.174;11.562;2022-07-29T07:54:31;1.30;;;1.30;;
27802;SDS011;15182;48.174;11.562;2022-07-29T07:57:03;1.55;;;1.55;;
27802;SDS011;15182;48.174;11.562;2022-07-29T07:59:34;5.00;;;1.70;;
27802;SDS011;15182;48.174;11.562;2022-07-29T08:02:06;1.70;;;1.60;;
27802;SDS011;15182;48.174;11.562;2022-07-29T08:04:38;1.50;;;1.50;;
27802;SDS011;15182;48.174;11.562;2022-07-29T08:07:11;1.65;;;1.65;;
27802;SDS011;15182;48.174;11.562;2022-07-29T08:09:42;1.42;;;1.42;;
27802;SDS011;15182;48.174;11.562;2022-07-29T08:12:14;1.70;;;1.70;;
27802;SDS011;15182;48.174;11.562;2022-07-29T08:14:45;1.92;;;1.52;;
27802;SDS011;15182;48.174;11.562;2022-07-29T08:17:16;1.70;;;1.70;;
27802;SDS011;15182;48.174;11.562;2022-07-29T08:19:48;1.70;;;1.70;;
27802;SDS011;15182;48.174;11.562;2022-07-29T08:22:20;2.03;;;1.63;;
27802;SDS011;15182;48.174;11.562;2022-07-29T08:24:52;2.15;;;1.50;;
27802;SDS011;15182;48.174;11.562;2022-07-29T08:27:23;1.80;;;1.80;;
27802;SDS011;15182;48.174;11.562;2022-07-29T08:29:56;1.20;;;1.20;;
27802;SDS011;15182;48.174;11.562;2022-07-29T08:32:28;1.40;;;1.40;;
27802;SDS011;15182;48.174;11.562;2022-07-29T08:34:59;1.40;;;1.40;;
27802;SDS011;15182;48.174;11.562;2022-07-29T08:37:33;1.70;;;1.60;;
27802;SDS011;15182;48.174;11.562;2022-07-29T08:40:04;1.60;;;1.60;;
27802;SDS011;15182;48.174;11.562;2022-07-29T08:42:38;1.65;;;1.63;;
27802;SDS011;15182;48.174;11.562;2022-07-29T08:45:09;2.08;;;1.80;;
27802;SDS011;15182;48.174;11.562;2022-07-29T08:47:41;1.85;;;1.75;;
27802;SDS011;15182;48.174;11.562;2022-07-29T08:50:13;2.10;;;1.90;;
27802;SDS011;15182;48.174;11.562;2022-07-29T08:52:45;1.83;;;1.83;;
27802;SDS011;15182;48.174;11.562;2022-07-29T08:55:18;1.40;;;1.40;;
27802;SDS011;15182;48.174;11.562;2022-07-29T08:57:50;1.73;;;1.67;;
27802;SDS011;15182;48.174;11.562;2022-07-29T09:00:21;1.70;;;1.70;;
27802;SDS011;15182;48.174;11.562;2022-07-29T09:02:56;2.15;;;2.00;;
27802;SDS011;15182;48.174;11.562;2022-07-29T09:05:28;2.00;;;1.90;;
27802;SDS011;15182;48.174;11.562;2022-07-29T09:08:03;1.95;;;1.85;;
27802;SDS011;15182;48.174;11.562;2022-07-29T09:10:36;1.90;;;1.90;;
27802;SDS011;15182;48.174;11.562;2022-07-29T09:13:10;2.00;;;2.00;;
27802;SDS011;15182;48.174;11.562;2022-07-29T09:15:41;2.65;;;2.55;;
27802;SDS011;15182;48.174;11.562;2022-07-29T09:18:42;1.90;;;1.90;;
27802;SDS011;15182;48.174;11.562;2022-07-29T09:21:15;1.73;;;1.73;;
27802;SDS011;15182;48.174;11.562;2022-07-29T09:24:08;2.97;;;1.90;;
27802;SDS011;15182;48.174;11.562;2022-07-29T09:26:41;1.85;;;1.85;;
27802;SDS011;15182;48.174;11.562;2022-07-29T09:29:14;2.00;;;2.00;;
27802;SDS011;15182;48.174;11.562;2022-07-29T09:31:49;1.75;;;1.75;;
27802;SDS011;15182;48.174;11.562;2022-07-29T09:34:23;2.10;;;2.10;;
27802;SDS011;15182;48.174;11.562;2022-07-29T09:36:57;1.98;;;1.98;;
27802;SDS011;15182;48.174;11.562;2022-07-29T09:39:31;1.95;;;1.95;;
27802;SDS011;15182;48.174;11.562;2022-07-29T09:42:09;1.90;;;1.88;;
27802;SDS011;15182;48.174;11.562;2022-07-29T09:44:42;2.05;;;2.00;;
27802;SDS011;15182;48.174;11.562;2022-07-29T09:47:16;3.58;;;1.98;;
27802;SDS011;15182;48.174;11.562;2022-07-29T09:49:52;3.63;;;2.25;;
27802;SDS011;15182;48.174;11.562;2022-07-29T09:52:25;2.28;;;2.28;;
27802;SDS011;15182;48.174;11.562;2022-07-29T09:55:06;2.45;;;2.38;;
27802;SDS011;15182;48.174;11.562;2022-07-29T09:57:40;2.33;;;2.33;;
27802;SDS011;15182;48.174;11.562;2022-07-29T10:00:12;2.30;;;2.20;;
27802;SDS011;15182;48.174;11.562;2022-07-29T10:02:48;2.40;;;2.30;;
27802;SDS011;15182;48.174;11.562;2022-07-29T10:05:24;2.65;;;2.45;;
27802;SDS011;15182;48.174;11.562;2022-07-29T10:07:56;2.40;;;2.30;;
27802;SDS011;15182;48.174;11.562;2022-07-29T10:10:30;2.28;;;2.10;;
27802;SDS011;15182;48.174;11.562;2022-07-29T10:13:04;2.58;;;2.40;;
27802;SDS011;15182;48.174;11.562;2022-07-29T10:15:39;2.15;;;2.15;;
27802;SDS011;15182;48.174;11.562;2022-07-29T10:18:16;2.13;;;2.00;;
27802;SDS011;15182;48.174;11.562;2022-07-29T10:20:48;2.35;;;2.35;;
27802;SDS011;15182;48.174;11.562;2022-07-29T10:23:20;2.00;;;2.00;;
27802;SDS011;15182;48.174;11.562;2022-07-29T10:25:53;2.47;;;2.47;;
27802;SDS011;15182;48.174;11.562;2022-07-29T10:28:25;2.35;;;2.35;;
27802;SDS011;15182;48.174;11.562;2022-07-29T10:30:58;2.25;;;2.25;;
27802;SDS011;15182;48.174;11.562;2022-07-29T10:33:39;3.92;;;2.28;;
27802;SDS011;15182;48.174;11.562;2022-07-29T10:36:21;2.10;;;2.10;;
27802;SDS011;15182;48.174;11.562;2022-07-29T10:39:08;2.45;;;2.42;;
27802;SDS011;15182;48.174;11.562;2022-07-29T10:41:55;2.28;;;2.20;;
27802;SDS011;15182;48.174;11.562;2022-07-29T10:44:33;2.40;;;2.40;;
27802;SDS011;15182;48.174;11.562;2022-07-29T10:47:06;2.53;;;2.33;;
27802;SDS011;15182;48.174;11.562;2022-07-29T10:49:55;2.38;;;2.38;;
27802;SDS011;15182;48.174;11.562;2022-07-29T10:55:30;2.35;;;2.35;;
27802;SDS011;15182;48.174;11.562;2022-07-29T10:58:14;2.85;;;2.50;;
27802;SDS011;15182;48.174;11.562;2022-07-29T11:00:48;2.60;;;2.50;;
27802;SDS011;15182;48.174;11.562;2022-07-29T11:06:18;2.35;;;2.30;;
27802;SDS011;15182;48.174;11.562;2022-07-29T11:11:46;2.25;;;2.20;;
27802;SDS011;15182;48.174;11.562;2022-07-29T11:14:19;2.35;;;2.25;;
27802;SDS011;15182;48.174;11.562;2022-07-29T11:17:26;2.13;;;1.90;;
27802;SDS011;15182;48.174;11.562;2022-07-29T11:23:16;2.10;;;2.10;;
27802;SDS011;15182;48.174;11.562;2022-07-29T11:26:14;2.15;;;2.00;;
27802;SDS011;15182;48.174;11.562;2022-07-29T11:28:50;2.45;;;2.28;;
27802;SDS011;15182;48.174;11.562;2022-07-29T11:31:36;2.33;;;2.13;;
27802;SDS011;15182;48.174;11.562;2022-07-29T11:34:16;1.90;;;1.90;;
27802;SDS011;15182;48.174;11.562;2022-07-29T11:42:41;1.67;;;1.67;;
27802;SDS011;15182;48.174;11.562;2022-07-29T11:45:17;2.20;;;2.10;;
27802;SDS011;15182;48.174;11.562;2022-07-29T11:47:50;3.50;;;2.03;;
27802;SDS011;15182;48.174;11.562;2022-07-29T11:50:29;1.80;;;1.77;;
27802;SDS011;15182;48.174;11.562;2022-07-29T11:53:03;2.25;;;2.15;;
27802;SDS011;15182;48.174;11.562;2022-07-29T11:55:42;2.10;;;2.10;;
27802;SDS011;15182;48.174;11.562;2022-07-29T11:58:14;1.85;;;1.85;;
27802;SDS011;15182;48.174;11.562;2022-07-29T12:00:49;1.80;;;1.80;;
27802;SDS011;15182;48.174;11.562;2022-07-29T12:03:25;2.15;;;1.85;;
27802;SDS011;15182;48.174;11.562;2022-07-29T12:05:58;1.83;;;1.73;;
27802;SDS011;15182;48.174;11.562;2022-07-29T12:08:40;2.00;;;1.90;;
27802;SDS011;15182;48.174;11.562;2022-07-29T12:11:15;2.08;;;1.98;;
27802;SDS011;15182;48.174;11.562;2022-07-29T12:13:47;3.72;;;1.58;;
27802;SDS011;15182;48.174;11.562;2022-07-29T12:16:21;2.08;;;1.92;;
27802;SDS011;15182;48.174;11.562;2022-07-29T12:19:03;2.20;;;2.10;;
27802;SDS011;15182;48.174;11.562;2022-07-29T12:21:43;1.90;;;1.90;;
27802;SDS011;15182;48.174;11.562;2022-07-29T12:24:13;2.28;;;2.08;;
27802;SDS011;15182;48.174;11.562;2022-07-29T12:26:49;1.90;;;1.90;;
27802;SDS011;15182;48.174;11.562;2022-07-29T12:29:23;2.38;;;2.03;;
27802;SDS011;15182;48.174;11.562;2022-07-29T12:31:55;2.30;;;2.20;;
27802;SDS011;15182;48.174;11.562;2022-07-29T12:34:29;2.35;;;2.20;;
27802;SDS011;15182;48.174;11.562;2022-07-29T12:37:02;2.35;;;2.13;;
27802;SDS011;15182;48.174;11.562;2022-07-29T12:39:35;2.50;;;2.20;;
27802;SDS011;15182;48.174;11.562;2022-07-29T12:42:10;2.13;;;2.03;;
27802;SDS011;15182;48.174;11.562;2022-07-29T12:44:46;2.60;;;2.45;;
27802;SDS011;15182;48.174;11.562;2022-07-29T12:47:19;3.72;;;2.22;;
27802;SDS011;15182;48.174;11.562;2022-07-29T12:50:06;2.20;;;2.20;;
27802;SDS011;15182;48.174;11.562;2022-07-29T12:52:38;1.90;;;1.90;;
27802;SDS011;15182;48.174;11.562;2022-07-29T12:55:10;2.15;;;2.10;;
27802;SDS011;15182;48.174;11.562;2022-07-29T12:57:45;1.98;;;1.90;;
27802;SDS011;15182;48.174;11.562;2022-07-29T13:00:21;2.75;;;2.10;;
27802;SDS011;15182;48.174;11.562;2022-07-29T13:02:54;2.22;;;2.13;;
27802;SDS011;15182;48.174;11.562;2022-07-29T13:05:40;2.28;;;2.10;;
27802;SDS011;15182;48.174;11.562;2022-07-29T13:08:11;2.10;;;2.00;;
27802;SDS011;15182;48.174;11.562;2022-07-29T13:10:45;4.28;;;2.25;;
27802;SDS011;15182;48.174;11.562;2022-07-29T13:13:17;5.60;;;2.20;;
27802;SDS011;15182;48.174;11.562;2022-07-29T13:15:53;4.68;;;2.03;;
27802;SDS011;15182;48.174;11.562;2022-07-29T13:18:36;2.88;;;2.00;;
27802;SDS011;15182;48.174;11.562;2022-07-29T13:21:13;2.17;;;2.17;;
27802;SDS011;15182;48.174;11.562;2022-07-29T13:23:46;2.53;;;2.08;;
27802;SDS011;15182;48.174;11.562;2022-07-29T13:26:17;2.05;;;2.00;;
27802;SDS011;15182;48.174;11.562;2022-07-29T13:28:49;1.70;;;1.70;;
27802;SDS011;15182;48.174;11.562;2022-07-29T13:31:20;2.20;;;2.10;;
27802;SDS011;15182;48.174;11.562;2022-07-29T13:33:52;2.28;;;2.00;;
27802;SDS011;15182;48.174;11.562;2022-07-29T13:36:24;2.00;;;2.00;;
27802;SDS011;15182;48.174;11.562;2022-07-29T13:38:56;2.00;;;2.00;;
27802;SDS011;15182;48.174;11.562;2022-07-29T13:41:28;5.00;;;2.40;;
27802;SDS011;15182;48.174;11.562;2022-07-29T13:44:00;1.98;;;1.88;;
27802;SDS011;15182;48.174;11.562;2022-07-29T13:46:31;2.28;;;2.17;;
27802;SDS011;15182;48.174;11.562;2022-07-29T13:49:02;2.63;;;2.25;;
27802;SDS011;15182;48.174;11.562;2022-07-29T13:51:35;2.35;;;2.00;;
27802;SDS011;15182;48.174;11.562;2022-07-29T13:54:06;1.90;;;1.90;;
27802;SDS011;15182;48.174;11.562;2022-07-29T13:56:38;1.90;;;1.90;;
27802;SDS011;15182;48.174;11.562;2022-07-29T13:59:09;2.22;;;2.13;;
27802;SDS011;15182;48.174;11.562;2022-07-29T14:01:40;2.83;;;2.17;;
27802;SDS011;15182;48.174;11.562;2022-07-29T14:04:11;2.47;;;2.38;;
27802;SDS011;15182;48.174;11.562;2022-07-29T14:06:44;2.30;;;2.10;;
27802;SDS011;15182;48.174;11.562;2022-07-29T14:09:15;2.13;;;2.08;;
27802;SDS011;15182;48.174;11.562;2022-07-29T14:11:47;1.90;;;1.90;;
27802;SDS011;15182;48.174;11.562;2022-07-29T14:14:18;1.90;;;1.83;;
27802;SDS011;15182;48.174;11.562;2022-07-29T14:16:50;1.85;;;1.70;;
27802;SDS011;15182;48.174;11.562;2022-07-29T14:19:21;1.77;;;1.77;;
27802;SDS011;15182;48.174;11.562;2022-07-29T14:21:54;2.30;;;2.20;;
27802;SDS011;15182;48.174;11.562;2022-07-29T14:24:25;1.83;;;1.83;;
27802;SDS011;15182;48.174;11.562;2022-07-29T14:26:57;6.50;;;1.80;;
27802;SDS011;15182;48.174;11.562;2022-07-29T14:29:29;1.63;;;1.63;;
27802;SDS011;15182;48.174;11.562;2022-07-29T14:32:01;1.77;;;1.63;;
27802;SDS011;15182;48.174;11.562;2022-07-29T14:34:34;1.73;;;1.73;;
27802;SDS011;15182;48.174;11.562;2022-07-29T14:37:07;1.83;;;1.73;;
27802;SDS011;15182;48.174;11.562;2022-07-29T14:39:39;1.95;;;1.92;;
27802;SDS011;15182;48.174;11.562;2022-07-29T14:42:10;2.13;;;2.13;;
27802;SDS011;15182;48.174;11.562;2022-07-29T14:44:42;1.60;;;1.60;;
27802;SDS011;15182;48.174;11.562;2022-07-29T14:47:15;3.97;;;1.77;;
27802;SDS011;15182;48.174;11.562;2022-07-29T14:49:47;1.73;;;1.73;;
27802;SDS011;15182;48.174;11.562;2022-07-29T14:52:20;2.10;;;2.10;;
27802;SDS011;15182;48.174;11.562;2022-07-29T14:54:52;2.00;;;1.90;;
27802;SDS011;15182;48.174;11.562;2022-07-29T14:57:23;1.73;;;1.73;;
27802;SDS011;15182;48.174;11.562;2022-07-29T14:59:54;1.90;;;1.80;;
27802;SDS011;15182;48.174;11.562;2022-07-29T15:02:26;1.73;;;1.73;;
27802;SDS011;15182;48.174;11.562;2022-07-29T15:04:57;2.00;;;2.00;;
27802;SDS011;15182;48.174;11.562;2022-07-29T15:07:30;2.00;;;2.00;;
27802;SDS011;15182;48.174;11.562;2022-07-29T15:10:02;2.05;;;2.05;;
27802;SDS011;15182;48.174;11.562;2022-07-29T15:12:40;2.13;;;2.05;;
27802;SDS011;15182;48.174;11.562;2022-07-29T15:15:11;2.20;;;2.10;;
27802;SDS011;15182;48.174;11.562;2022-07-29T15:17:42;1.90;;;1.80;;
27802;SDS011;15182;48.174;11.562;2022-07-29T15:20:15;3.25;;;2.13;;
27802;SDS011;15182;48.174;11.562;2022-07-29T15:22:48;2.72;;;2.55;;
27802;SDS011;15182;48.174;11.562;2022-07-29T15:25:21;2.53;;;2.42;;
27802;SDS011;15182;48.174;11.562;2022-07-29T15:27:52;2.45;;;2.40;;
27802;SDS011;15182;48.174;11.562;2022-07-29T15:30:29;3.35;;;2.30;;